Terminal Aerodrome Forecast
Issued by NWS

Home | Current Version | Previous Version | Text Only | Print | Product List | Glossary On
Versions: 1 2 3 4 5 6 7 8 9 10 11 12 13 14 15 16 17 18 19 20
000
FTUS43 KDTX 290520
TAFDET
TAF
KDET 290520Z 2906/3006 12005KT P6SM SCT250
      TEMPO 2910/2913 5SM BR
     FM291300 16007KT P6SM SCT080
     FM291900 18013KT P6SM SCT050
     FM300100 18010KT P6SM BKN080 OVC200=

USA.gov is the U.S. government's official web portal to all federal, state and local government web resources and services.